createdAt,value
2017-06-25T00:01:12.979Z,18.70
2017-06-25T00:03:42.034Z,18.70
2017-06-25T00:06:10.334Z,18.70
2017-06-25T00:08:38.611Z,18.70
2017-06-25T00:11:06.975Z,18.70
2017-06-25T00:13:35.250Z,18.70
2017-06-25T00:16:03.700Z,18.70
2017-06-25T00:18:31.995Z,18.70
2017-06-25T00:21:00.303Z,18.70
2017-06-25T00:23:29.363Z,18.50
2017-06-25T00:25:57.747Z,18.50
2017-06-25T00:28:26.810Z,18.20
2017-06-25T00:30:55.928Z,18.00
2017-06-25T00:33:24.956Z,17.90
2017-06-25T00:35:53.238Z,17.90
2017-06-25T00:38:21.539Z,17.70
2017-06-25T00:40:49.807Z,17.70
2017-06-25T00:43:18.095Z,17.60
2017-06-25T00:45:46.482Z,17.60
2017-06-25T00:48:14.890Z,17.60
2017-06-25T00:50:43.168Z,17.60
2017-06-25T00:53:17.191Z,17.60
2017-06-25T00:55:45.468Z,17.70
2017-06-25T00:58:14.508Z,17.80
2017-06-25T01:00:42.871Z,17.80
2017-06-25T01:03:11.266Z,17.80
2017-06-25T01:05:39.563Z,17.80
2017-06-25T01:08:07.843Z,17.90
2017-06-25T01:10:36.138Z,17.90
2017-06-25T01:13:04.415Z,17.90
2017-06-25T01:15:32.762Z,17.90
2017-06-25T01:18:01.037Z,18.00
2017-06-25T01:20:29.339Z,18.00
2017-06-25T01:22:57.618Z,18.10
2017-06-25T01:25:26.486Z,18.10
2017-06-25T01:27:54.756Z,18.10
2017-06-25T01:30:23.667Z,18.00
2017-06-25T01:32:51.951Z,18.10
2017-06-25T01:35:20.330Z,18.10
2017-06-25T01:37:48.623Z,18.10
2017-06-25T01:40:17.045Z,18.10
2017-06-25T01:42:45.643Z,18.10
2017-06-25T01:45:14.658Z,18.10
2017-06-25T01:47:43.828Z,18.10
2017-06-25T01:50:12.099Z,18.10
2017-06-25T01:52:40.417Z,18.10
2017-06-25T01:55:09.058Z,18.10
2017-06-25T01:57:37.454Z,18.10
2017-06-25T02:00:06.335Z,18.10
2017-06-25T02:02:34.607Z,18.00
2017-06-25T02:05:02.903Z,18.00
2017-06-25T02:07:31.184Z,18.00
2017-06-25T02:09:59.561Z,18.10
2017-06-25T02:12:27.915Z,18.10
2017-06-25T02:14:56.970Z,18.10
2017-06-25T02:17:25.252Z,18.10
2017-06-25T02:19:54.303Z,18.00
2017-06-25T02:22:22.695Z,18.00
2017-06-25T02:24:51.763Z,18.00
2017-06-25T02:27:20.269Z,18.00
2017-06-25T02:29:49.295Z,18.00
2017-06-25T02:32:17.694Z,18.00
2017-06-25T02:34:46.033Z,18.00
2017-06-25T02:37:15.292Z,18.00
2017-06-25T02:39:43.570Z,18.00
2017-06-25T02:42:11.979Z,17.90
2017-06-25T02:44:40.325Z,17.90
2017-06-25T02:47:09.388Z,17.80
2017-06-25T02:49:37.671Z,17.80
2017-06-25T02:52:06.727Z,17.80
2017-06-25T02:54:35.004Z,17.70
2017-06-25T02:57:03.299Z,17.80
2017-06-25T02:59:31.579Z,17.80
2017-06-25T03:01:59.855Z,17.80
2017-06-25T03:04:28.144Z,17.80
2017-06-25T03:06:56.620Z,17.80
2017-06-25T03:09:47.149Z,17.90
2017-06-25T03:12:15.439Z,17.80
2017-06-25T03:14:43.783Z,17.80
2017-06-25T03:17:12.103Z,17.80
2017-06-25T03:19:41.175Z,17.90
2017-06-25T03:22:10.862Z,17.90
2017-06-25T03:24:39.168Z,17.80
2017-06-25T03:27:07.544Z,17.90
2017-06-25T03:29:35.826Z,17.90
2017-06-25T03:32:04.103Z,17.90
2017-06-25T03:34:32.379Z,17.90
2017-06-25T03:37:01.435Z,17.80
2017-06-25T03:39:29.715Z,17.80
2017-06-25T03:41:58.771Z,17.80
2017-06-25T03:44:27.515Z,17.70
2017-06-25T03:46:55.804Z,17.70
2017-06-25T03:49:24.097Z,17.60
2017-06-25T03:51:52.470Z,17.50
2017-06-25T03:54:20.875Z,17.40
2017-06-25T03:56:49.187Z,17.30
2017-06-25T03:59:18.281Z,17.10
2017-06-25T04:01:46.602Z,17.10
2017-06-25T04:04:14.973Z,17.00
2017-06-25T04:06:43.318Z,16.80
2017-06-25T04:09:11.623Z,16.70
2017-06-25T04:11:39.914Z,16.60
2017-06-25T04:14:08.200Z,16.60
2017-06-25T04:16:36.621Z,16.50
2017-06-25T04:19:05.055Z,16.40
2017-06-25T04:21:33.333Z,16.40
2017-06-25T04:24:02.490Z,16.40
2017-06-25T04:26:30.844Z,16.40
2017-06-25T04:28:59.132Z,16.40
2017-06-25T04:31:28.310Z,16.40
2017-06-25T04:33:57.583Z,16.50
2017-06-25T04:36:25.873Z,16.60
2017-06-25T04:38:54.159Z,16.50
2017-06-25T04:42:00.375Z,16.50
2017-06-25T04:44:29.468Z,16.50
2017-06-25T04:46:57.822Z,16.50
2017-06-25T04:49:26.878Z,16.40
2017-06-25T04:51:55.163Z,16.40
2017-06-25T04:54:24.207Z,16.50
2017-06-25T04:56:52.503Z,16.50
2017-06-25T04:59:21.543Z,16.50
2017-06-25T05:01:50.094Z,16.50
2017-06-25T05:04:18.511Z,16.50
2017-06-25T05:06:47.609Z,16.50
2017-06-25T05:09:16.948Z,16.50
2017-06-25T05:11:45.250Z,16.60
2017-06-25T05:14:13.590Z,16.60
2017-06-25T05:16:42.346Z,16.50
2017-06-25T05:19:10.627Z,16.50
2017-06-25T05:21:38.903Z,16.50
2017-06-25T05:24:07.955Z,16.50
2017-06-25T05:26:36.235Z,16.50
2017-06-25T05:29:05.298Z,16.70
2017-06-25T05:31:33.675Z,16.60
2017-06-25T05:34:01.992Z,16.60
2017-06-25T05:36:30.271Z,16.70
2017-06-25T05:38:58.559Z,16.70
2017-06-25T05:41:26.923Z,16.70
2017-06-25T05:43:56.037Z,16.70
2017-06-25T05:46:25.053Z,16.80
2017-06-25T05:48:53.351Z,16.80
2017-06-25T05:51:22.402Z,16.80
2017-06-25T05:53:50.681Z,16.80
2017-06-25T05:56:19.055Z,16.90
2017-06-25T05:58:47.318Z,17.00
2017-06-25T06:01:16.379Z,17.10
2017-06-25T06:03:44.754Z,17.10
2017-06-25T06:06:13.228Z,17.10
2017-06-25T06:08:42.263Z,17.20
2017-06-25T06:11:10.763Z,17.20
2017-06-25T06:13:39.039Z,17.30
2017-06-25T06:16:07.335Z,17.30
2017-06-25T06:18:35.611Z,17.30
2017-06-25T06:21:03.907Z,17.30
2017-06-25T06:23:33.073Z,17.30
2017-06-25T06:26:01.412Z,17.30
2017-06-25T06:28:29.695Z,17.30
2017-06-25T06:30:57.976Z,17.20
2017-06-25T06:33:26.269Z,17.20
2017-06-25T06:35:54.540Z,17.20
2017-06-25T06:38:22.826Z,17.20
2017-06-25T06:40:51.109Z,17.40
2017-06-25T06:43:19.407Z,17.50
2017-06-25T06:45:47.687Z,17.30
2017-06-25T06:48:15.990Z,17.30
2017-06-25T06:50:44.334Z,17.20
2017-06-25T06:53:12.597Z,17.20
2017-06-25T06:55:40.876Z,17.30
2017-06-25T06:58:09.218Z,17.40
2017-06-25T07:00:37.599Z,17.70
2017-06-25T07:03:06.061Z,18.10
2017-06-25T07:05:34.348Z,18.20
2017-06-25T07:08:03.480Z,17.90
2017-06-25T07:10:31.911Z,17.90
2017-06-25T07:13:00.948Z,17.60
2017-06-25T07:15:29.237Z,17.60
2017-06-25T07:17:57.512Z,17.50
2017-06-25T07:20:26.591Z,17.50
2017-06-25T07:22:54.879Z,17.50
2017-06-25T07:25:23.314Z,17.50
2017-06-25T07:27:52.382Z,17.60
2017-06-25T07:30:20.700Z,17.60
2017-06-25T07:32:48.998Z,17.80
2017-06-25T07:35:17.273Z,17.80
2017-06-25T07:37:45.579Z,17.80
2017-06-25T07:40:13.956Z,18.00
2017-06-25T07:42:42.419Z,17.90
2017-06-25T07:45:10.827Z,17.90
2017-06-25T07:47:39.169Z,18.00
2017-06-25T07:50:07.909Z,17.90
2017-06-25T07:52:36.190Z,17.90
2017-06-25T07:55:04.463Z,17.90
2017-06-25T07:57:32.752Z,18.00
2017-06-25T08:00:01.790Z,18.30
2017-06-25T08:02:30.080Z,18.30
2017-06-25T08:04:58.540Z,18.60
2017-06-25T08:07:26.795Z,18.80
2017-06-25T08:09:55.080Z,18.80
2017-06-25T08:12:24.126Z,19.00
2017-06-25T08:14:52.499Z,19.00
2017-06-25T08:17:20.779Z,19.00
2017-06-25T08:19:49.833Z,19.20
2017-06-25T08:22:18.105Z,19.10
2017-06-25T08:24:46.407Z,19.30
2017-06-25T08:27:14.689Z,19.60
2017-06-25T08:29:42.985Z,19.70
2017-06-25T08:32:11.268Z,19.60
2017-06-25T08:34:39.549Z,19.80
2017-06-25T08:37:07.844Z,19.90
2017-06-25T08:39:36.136Z,20.10
2017-06-25T08:42:04.453Z,20.30
2017-06-25T08:44:32.731Z,20.40
2017-06-25T08:47:01.028Z,20.30
2017-06-25T08:49:29.315Z,20.10
2017-06-25T08:51:58.609Z,20.40
2017-06-25T08:54:26.907Z,20.50
2017-06-25T08:56:55.218Z,20.80
2017-06-25T08:59:24.262Z,20.90
2017-06-25T09:01:52.549Z,20.90
2017-06-25T09:04:21.598Z,20.80
2017-06-25T09:06:49.907Z,20.80
2017-06-25T09:09:18.203Z,20.70
2017-06-25T09:11:46.496Z,20.60
2017-06-25T09:14:14.833Z,20.70
2017-06-25T09:16:43.467Z,20.70
2017-06-25T09:19:12.510Z,20.80
2017-06-25T09:21:40.796Z,20.80
2017-06-25T09:24:09.848Z,20.80
2017-06-25T09:26:38.128Z,20.80
2017-06-25T09:29:07.215Z,20.60
2017-06-25T09:31:36.274Z,20.60
2017-06-25T09:34:04.591Z,20.60
2017-06-25T09:36:32.863Z,20.40
2017-06-25T09:39:01.138Z,20.40
2017-06-25T09:41:29.470Z,20.50
2017-06-25T09:43:57.906Z,20.80
2017-06-25T09:46:27.197Z,21.10
2017-06-25T09:48:56.020Z,21.10
2017-06-25T09:51:24.326Z,21.40
2017-06-25T09:53:52.589Z,21.40
2017-06-25T09:56:21.654Z,21.70
2017-06-25T09:58:50.845Z,21.90
2017-06-25T10:01:20.028Z,21.70
2017-06-25T10:03:48.651Z,21.70
2017-06-25T10:06:17.364Z,21.70
2017-06-25T10:08:45.646Z,21.70
2017-06-25T10:11:13.926Z,21.50
2017-06-25T10:13:42.271Z,21.40
2017-06-25T10:16:10.730Z,21.40
2017-06-25T10:18:39.011Z,21.40
2017-06-25T10:21:07.418Z,21.50
2017-06-25T10:23:35.788Z,21.70
2017-06-25T10:26:04.075Z,21.90
2017-06-25T10:28:33.164Z,21.80
2017-06-25T10:31:01.495Z,21.70
2017-06-25T10:33:29.791Z,21.50
2017-06-25T10:35:58.333Z,21.30
2017-06-25T10:38:26.703Z,21.10
2017-06-25T10:40:54.984Z,21.00
2017-06-25T10:43:24.026Z,20.70
2017-06-25T10:45:52.387Z,20.70
2017-06-25T10:48:20.783Z,21.10
2017-06-25T10:50:49.314Z,21.50
2017-06-25T10:53:17.723Z,21.80
2017-06-25T10:55:46.043Z,22.10
2017-06-25T10:58:14.539Z,22.40
2017-06-25T11:00:42.944Z,22.60
2017-06-25T11:03:11.228Z,22.60
2017-06-25T11:05:39.539Z,22.40
2017-06-25T11:08:08.663Z,21.90
2017-06-25T11:10:36.952Z,21.80
2017-06-25T11:13:05.255Z,22.00
2017-06-25T11:15:33.537Z,22.20
2017-06-25T11:18:01.825Z,22.10
2017-06-25T11:20:30.111Z,22.30
2017-06-25T11:22:59.171Z,22.50
2017-06-25T11:25:27.462Z,22.50
2017-06-25T11:27:56.525Z,22.90
2017-06-25T11:30:24.826Z,22.90
2017-06-25T11:32:53.148Z,22.90
2017-06-25T11:35:21.422Z,22.50
2017-06-25T11:37:50.471Z,21.70
2017-06-25T11:40:18.803Z,21.70
2017-06-25T11:42:47.096Z,21.50
2017-06-25T11:45:15.639Z,21.30
2017-06-25T11:47:43.988Z,21.20
2017-06-25T11:50:12.282Z,20.90
2017-06-25T11:52:40.600Z,20.70
2017-06-25T11:55:08.903Z,20.50
2017-06-25T11:57:37.176Z,20.40
2017-06-25T12:00:05.780Z,20.30
2017-06-25T12:02:34.053Z,20.40
2017-06-25T12:05:03.130Z,20.70
2017-06-25T12:07:31.423Z,20.70
2017-06-25T12:09:59.727Z,20.90
2017-06-25T12:12:28.016Z,20.90
2017-06-25T12:14:57.063Z,20.80
2017-06-25T12:17:25.338Z,20.80
2017-06-25T12:19:53.708Z,20.80
2017-06-25T12:22:21.975Z,20.60
2017-06-25T12:24:51.033Z,20.40
2017-06-25T12:27:19.313Z,20.40
2017-06-25T12:29:48.364Z,20.40
2017-06-25T12:32:16.648Z,20.40
2017-06-25T12:34:45.705Z,20.40
2017-06-25T12:37:13.984Z,20.40
2017-06-25T12:39:43.075Z,20.50
2017-06-25T12:42:11.338Z,20.50
2017-06-25T12:44:40.400Z,20.40
2017-06-25T12:47:08.682Z,20.40
2017-06-25T12:49:37.728Z,20.30
2017-06-25T12:52:06.022Z,20.30
2017-06-25T12:54:35.076Z,20.20
2017-06-25T12:57:03.355Z,20.20
2017-06-25T12:59:32.416Z,20.10
2017-06-25T13:02:00.722Z,20.00
2017-06-25T13:04:29.758Z,20.00
2017-06-25T13:06:58.048Z,20.00
2017-06-25T13:09:26.358Z,20.10
2017-06-25T13:11:54.771Z,20.10
2017-06-25T13:14:23.862Z,20.10
2017-06-25T13:16:52.879Z,20.10
2017-06-25T13:19:21.160Z,20.10
2017-06-25T13:21:49.453Z,20.20
2017-06-25T13:24:18.499Z,20.00
2017-06-25T13:26:46.802Z,20.00
2017-06-25T13:29:15.092Z,19.90
2017-06-25T13:31:43.387Z,20.00
2017-06-25T13:34:11.672Z,20.10
2017-06-25T13:36:40.105Z,20.20
2017-06-25T13:39:09.067Z,20.20
2017-06-25T13:41:37.346Z,20.30
2017-06-25T13:44:05.658Z,20.50
2017-06-25T13:46:33.950Z,20.60
2017-06-25T13:49:02.275Z,20.70
2017-06-25T13:51:30.563Z,20.80
2017-06-25T13:53:58.855Z,20.90
2017-06-25T13:56:27.132Z,20.80
2017-06-25T13:58:55.434Z,20.80
2017-06-25T14:01:23.710Z,20.80
2017-06-25T14:03:52.011Z,20.90
2017-06-25T14:06:20.373Z,20.90
2017-06-25T14:08:48.649Z,20.80
2017-06-25T14:11:16.938Z,20.90
2017-06-25T14:13:45.285Z,20.80
2017-06-25T14:16:14.364Z,20.60
2017-06-25T14:18:42.742Z,20.60
2017-06-25T14:21:11.908Z,20.40
2017-06-25T14:23:40.955Z,20.40
2017-06-25T14:26:09.802Z,20.40
2017-06-25T14:28:38.856Z,20.50
2017-06-25T14:31:07.213Z,20.50
2017-06-25T14:33:36.267Z,20.90
2017-06-25T14:36:04.553Z,20.90
2017-06-25T14:38:33.047Z,21.00
2017-06-25T14:41:01.311Z,21.00
2017-06-25T14:43:29.743Z,21.00
2017-06-25T14:45:58.079Z,20.80
2017-06-25T14:48:26.369Z,20.60
2017-06-25T14:50:54.835Z,20.50
2017-06-25T14:53:23.307Z,20.40
2017-06-25T14:55:52.363Z,20.30
2017-06-25T14:58:20.714Z,20.30
2017-06-25T15:00:49.016Z,20.40
2017-06-25T15:03:17.306Z,20.40
2017-06-25T15:05:45.582Z,20.60
2017-06-25T15:08:13.891Z,20.60
2017-06-25T15:10:42.927Z,20.50
2017-06-25T15:13:11.228Z,20.50
2017-06-25T15:15:39.787Z,20.40
2017-06-25T15:18:08.061Z,20.20
2017-06-25T15:20:37.127Z,20.10
2017-06-25T15:23:05.507Z,20.10
2017-06-25T15:25:34.559Z,20.10
2017-06-25T15:28:02.919Z,20.10
2017-06-25T15:30:31.215Z,20.20
2017-06-25T15:33:00.274Z,20.30
2017-06-25T15:35:28.588Z,20.30
2017-06-25T15:37:56.863Z,20.30
2017-06-25T15:40:25.151Z,20.40
2017-06-25T15:42:53.439Z,20.60
2017-06-25T15:45:21.912Z,20.80
2017-06-25T15:47:50.191Z,21.10
2017-06-25T15:50:18.511Z,21.20
2017-06-25T15:52:46.844Z,21.40
2017-06-25T15:55:15.319Z,21.90
2017-06-25T15:57:43.723Z,22.30
2017-06-25T16:00:12.015Z,22.00
2017-06-25T16:02:40.391Z,21.90
2017-06-25T16:05:08.679Z,21.80
2017-06-25T16:07:37.093Z,22.00
2017-06-25T16:10:05.587Z,22.10
2017-06-25T16:12:33.870Z,22.20
2017-06-25T16:15:02.177Z,21.90
2017-06-25T16:17:30.451Z,21.60
2017-06-25T16:19:58.744Z,21.60
2017-06-25T16:22:27.138Z,21.50
2017-06-25T16:24:55.426Z,21.50
2017-06-25T16:27:23.707Z,21.70
2017-06-25T16:29:52.051Z,21.70
2017-06-25T16:32:20.908Z,21.90
2017-06-25T16:34:49.968Z,21.70
2017-06-25T16:37:18.252Z,21.70
2017-06-25T16:39:46.553Z,21.60
2017-06-25T16:42:14.911Z,21.70
2017-06-25T16:44:43.309Z,21.70
2017-06-25T16:47:11.700Z,21.60
2017-06-25T16:49:40.767Z,21.90
2017-06-25T16:52:09.197Z,21.90
2017-06-25T16:54:37.509Z,22.20
2017-06-25T16:57:06.597Z,22.30
2017-06-25T16:59:34.923Z,22.20
2017-06-25T17:02:03.219Z,22.30
2017-06-25T17:04:32.269Z,22.70
2017-06-25T17:07:00.603Z,22.70
2017-06-25T17:09:28.999Z,22.90
2017-06-25T17:11:57.474Z,22.70
2017-06-25T17:14:25.751Z,22.60
2017-06-25T17:16:54.812Z,22.90
2017-06-25T17:19:23.865Z,23.00
2017-06-25T17:21:52.178Z,23.00
2017-06-25T17:24:20.646Z,22.80
2017-06-25T17:26:48.938Z,22.90
2017-06-25T17:29:17.239Z,23.10
2017-06-25T17:31:45.736Z,23.10
2017-06-25T17:34:14.075Z,23.10
2017-06-25T17:36:42.358Z,22.70
2017-06-25T17:39:12.511Z,22.80
2017-06-25T17:41:40.804Z,22.80
2017-06-25T17:44:09.092Z,22.70
2017-06-25T17:46:37.404Z,22.50
2017-06-25T17:49:05.787Z,22.30
2017-06-25T17:51:34.067Z,22.20
2017-06-25T17:54:03.127Z,22.20
2017-06-25T17:56:31.435Z,22.20
2017-06-25T17:58:59.732Z,22.30
2017-06-25T18:01:28.008Z,22.20
2017-06-25T18:03:56.303Z,22.10
2017-06-25T18:06:24.668Z,22.00
2017-06-25T18:08:53.019Z,21.80
2017-06-25T18:11:21.279Z,21.50
2017-06-25T18:13:49.748Z,21.50
2017-06-25T18:16:18.010Z,21.40
2017-06-25T18:18:47.086Z,21.40
2017-06-25T18:21:16.135Z,21.40
2017-06-25T18:23:44.594Z,21.30
2017-06-25T18:26:12.997Z,21.40
2017-06-25T18:28:41.336Z,21.30
2017-06-25T18:31:09.871Z,21.30
2017-06-25T18:33:38.167Z,21.20
2017-06-25T18:36:06.470Z,21.30
2017-06-25T18:38:34.794Z,21.10
2017-06-25T18:41:03.131Z,21.10
2017-06-25T18:43:31.443Z,21.00
2017-06-25T18:45:59.757Z,21.00
2017-06-25T18:48:28.035Z,20.90
2017-06-25T18:50:56.328Z,20.90
2017-06-25T18:53:25.379Z,20.70
2017-06-25T18:55:53.679Z,20.70
2017-06-25T18:58:21.990Z,20.70
2017-06-25T19:00:50.263Z,20.60
2017-06-25T19:03:18.593Z,20.60
2017-06-25T19:05:46.932Z,20.60
2017-06-25T19:08:15.207Z,20.50
2017-06-25T19:10:43.510Z,20.50
2017-06-25T19:13:11.779Z,20.50
2017-06-25T19:15:40.076Z,20.50
2017-06-25T19:18:08.351Z,20.40
2017-06-25T19:20:36.645Z,20.40
2017-06-25T19:23:04.933Z,20.40
2017-06-25T19:25:33.247Z,20.30
2017-06-25T19:28:01.526Z,20.30
2017-06-25T19:30:29.819Z,20.30
2017-06-25T19:32:58.099Z,20.20
2017-06-25T19:35:26.475Z,20.20
2017-06-25T19:37:54.746Z,20.20
2017-06-25T19:40:23.027Z,20.20
2017-06-25T19:42:51.847Z,20.10
2017-06-25T19:45:20.247Z,20.10
2017-06-25T19:47:49.038Z,20.10
2017-06-25T19:50:17.348Z,20.00
2017-06-25T19:52:45.654Z,20.00
2017-06-25T19:55:13.975Z,20.00
2017-06-25T19:57:43.028Z,19.90
2017-06-25T20:00:11.587Z,19.90
2017-06-25T20:02:40.003Z,19.90
2017-06-25T20:05:08.296Z,19.90
2017-06-25T20:07:36.591Z,19.90
2017-06-25T20:10:04.851Z,19.80
2017-06-25T20:12:33.146Z,19.80
2017-06-25T20:15:01.423Z,19.80
2017-06-25T20:17:29.714Z,19.80
2017-06-25T20:19:58.143Z,19.80
2017-06-25T20:22:26.440Z,19.80
2017-06-25T20:24:54.722Z,19.80
2017-06-25T20:27:23.022Z,19.80
2017-06-25T20:29:51.299Z,19.70
2017-06-25T20:32:19.696Z,19.70
2017-06-25T20:34:47.994Z,19.60
2017-06-25T20:37:16.278Z,19.60
2017-06-25T20:39:44.621Z,19.50
2017-06-25T20:42:13.167Z,19.40
2017-06-25T20:44:41.448Z,19.40
2017-06-25T20:47:10.518Z,19.30
2017-06-25T20:49:38.865Z,19.30
2017-06-25T20:52:07.153Z,19.30
2017-06-25T20:54:36.207Z,19.20
2017-06-25T20:57:04.626Z,19.20
2017-06-25T20:59:32.905Z,19.10
2017-06-25T21:02:01.195Z,19.10
2017-06-25T21:04:29.467Z,19.10
2017-06-25T21:06:57.754Z,19.00
2017-06-25T21:09:26.892Z,18.90
2017-06-25T21:11:55.174Z,18.90
2017-06-25T21:14:23.549Z,18.90
2017-06-25T21:16:52.695Z,18.70
2017-06-25T21:19:21.569Z,18.70
2017-06-25T21:21:49.959Z,18.60
2017-06-25T21:24:18.328Z,18.50
2017-06-25T21:26:46.649Z,18.40
2017-06-25T21:29:14.932Z,18.40
2017-06-25T21:31:43.221Z,18.30
2017-06-25T21:34:11.516Z,18.30
2017-06-25T21:36:40.640Z,18.20
2017-06-25T21:39:08.927Z,18.10
2017-06-25T21:41:37.981Z,18.10
2017-06-25T21:44:06.264Z,18.10
2017-06-25T21:46:34.629Z,18.10
2017-06-25T21:49:02.915Z,18.20
2017-06-25T21:51:31.207Z,18.20
2017-06-25T21:53:59.515Z,18.10
2017-06-25T21:56:28.561Z,18.00
2017-06-25T21:58:56.841Z,18.00
2017-06-25T22:01:25.127Z,17.90
2017-06-25T22:03:54.175Z,17.70
2017-06-25T22:06:22.471Z,17.70
2017-06-25T22:08:51.523Z,17.60
2017-06-25T22:11:19.804Z,17.60
2017-06-25T22:13:48.116Z,17.60
2017-06-25T22:16:16.557Z,17.50
2017-06-25T22:18:44.847Z,17.50
2017-06-25T22:21:13.166Z,17.40
2017-06-25T22:23:41.528Z,17.40
2017-06-25T22:26:10.561Z,17.30
2017-06-25T22:28:38.870Z,17.30
2017-06-25T22:31:07.518Z,17.30
2017-06-25T22:33:35.798Z,17.30
2017-06-25T22:36:04.168Z,17.20
2017-06-25T22:38:32.430Z,17.20
2017-06-25T22:41:00.707Z,17.20
2017-06-25T22:43:29.000Z,17.20
2017-06-25T22:45:57.271Z,17.30
2017-06-25T22:48:25.559Z,17.30
2017-06-25T22:50:54.596Z,17.50
2017-06-25T22:53:22.914Z,17.50
2017-06-25T22:55:51.197Z,17.50
2017-06-25T22:58:19.486Z,17.50
2017-06-25T23:00:47.755Z,17.40
2017-06-25T23:03:16.132Z,17.30
2017-06-25T23:05:44.424Z,17.20
2017-06-25T23:08:13.475Z,17.00
2017-06-25T23:10:41.740Z,17.00
2017-06-25T23:13:10.031Z,17.00
2017-06-25T23:15:38.587Z,16.90
2017-06-25T23:18:06.853Z,16.90
2017-06-25T23:20:35.891Z,17.00
2017-06-25T23:23:04.203Z,17.00
2017-06-25T23:25:32.479Z,17.10
2017-06-25T23:28:00.923Z,17.10
2017-06-25T23:30:30.272Z,17.30
2017-06-25T23:32:58.715Z,17.30
2017-06-25T23:35:27.094Z,17.30
2017-06-25T23:37:55.486Z,17.20
2017-06-25T23:40:24.537Z,17.30
2017-06-25T23:42:54.774Z,17.30
2017-06-25T23:45:23.125Z,17.40
2017-06-25T23:47:51.398Z,17.40
2017-06-25T23:50:19.715Z,17.40
2017-06-25T23:52:47.990Z,17.40
2017-06-25T23:55:16.293Z,17.40
2017-06-25T23:57:45.364Z,17.40
